createdAt,value
2023-01-03T00:04:38.222Z,9.40
2023-01-03T00:09:41.092Z,9.36
2023-01-03T00:14:44.802Z,9.26
2023-01-03T00:19:48.902Z,9.24
2023-01-03T00:24:53.685Z,9.29
2023-01-03T00:29:56.612Z,9.34
2023-01-03T00:35:05.140Z,9.34
2023-01-03T00:40:09.753Z,9.35
2023-01-03T00:45:17.603Z,9.29
2023-01-03T00:50:23.764Z,9.23
2023-01-03T00:55:26.520Z,9.12
2023-01-03T01:00:29.925Z,9.07
2023-01-03T01:05:33.975Z,9.06
2023-01-03T01:10:36.781Z,9.08
2023-01-03T01:15:39.493Z,9.05
2023-01-03T01:20:43.688Z,8.99
2023-01-03T01:25:46.371Z,8.96
2023-01-03T01:30:49.219Z,8.90
2023-01-03T01:35:53.500Z,8.97
2023-01-03T01:40:56.959Z,8.99
2023-01-03T01:46:00.666Z,8.98
2023-01-03T01:51:04.908Z,8.93
2023-01-03T01:56:10.349Z,8.89
2023-01-03T02:01:14.705Z,8.83
2023-01-03T02:06:20.110Z,8.80
2023-01-03T02:11:29.084Z,8.77
2023-01-03T02:16:48.290Z,8.73
2023-01-03T02:22:09.851Z,8.83
2023-01-03T02:27:36.227Z,8.85
2023-01-03T02:32:44.589Z,8.80
2023-01-03T02:37:55.412Z,8.73
2023-01-03T02:43:02.894Z,8.70
2023-01-03T02:48:11.337Z,8.59
2023-01-03T02:53:16.544Z,8.46
2023-01-03T02:58:23.266Z,8.36
2023-01-03T03:03:29.982Z,8.27
2023-01-03T03:08:32.865Z,8.21
2023-01-03T03:13:38.513Z,8.19
2023-01-03T03:18:50.070Z,8.17
2023-01-03T03:24:11.873Z,8.11
2023-01-03T03:29:16.709Z,8.01
2023-01-03T03:34:22.696Z,7.93
2023-01-03T03:39:44.224Z,7.87
2023-01-03T03:45:03.396Z,7.96
2023-01-03T03:50:11.635Z,7.79
2023-01-03T03:55:18.035Z,7.75
2023-01-03T04:00:27.280Z,7.68
2023-01-03T04:05:33.892Z,7.58
2023-01-03T04:10:38.102Z,7.52
2023-01-03T04:15:41.080Z,7.53
2023-01-03T04:20:45.242Z,7.41
2023-01-03T04:25:49.058Z,7.30
2023-01-03T04:30:51.810Z,7.27
2023-01-03T04:35:55.926Z,7.20
2023-01-03T04:41:04.992Z,7.26
2023-01-03T04:46:07.881Z,7.19
2023-01-03T04:51:12.231Z,7.20
2023-01-03T04:56:14.942Z,7.32
2023-01-03T05:01:17.813Z,7.38
2023-01-03T05:06:22.002Z,7.42
2023-01-03T05:11:25.333Z,7.53
2023-01-03T05:16:28.290Z,7.57
2023-01-03T05:21:50.040Z,7.62
2023-01-03T05:26:53.410Z,7.69
2023-01-03T05:31:56.417Z,7.71
2023-01-03T05:37:00.622Z,7.78
2023-01-03T05:42:03.450Z,7.92
2023-01-03T05:47:06.630Z,7.83
2023-01-03T05:52:10.786Z,7.78
2023-01-03T05:57:13.937Z,7.81
2023-01-03T06:02:17.543Z,7.85
2023-01-03T06:07:21.760Z,7.94
2023-01-03T06:12:24.452Z,8.03
2023-01-03T06:17:44.716Z,8.12
2023-01-03T06:22:48.811Z,8.26
2023-01-03T06:27:51.816Z,8.34
2023-01-03T06:32:54.732Z,8.31
2023-01-03T06:37:59.612Z,8.18
2023-01-03T06:43:02.737Z,8.10
2023-01-03T06:48:23.671Z,8.08
2023-01-03T06:53:32.481Z,7.96
2023-01-03T06:58:35.825Z,7.90
2023-01-03T07:03:38.731Z,7.87
2023-01-03T07:08:48.111Z,7.74
2023-01-03T07:14:00.680Z,7.71
2023-01-03T07:19:03.872Z,7.66
2023-01-03T07:24:09.041Z,7.71
2023-01-03T07:29:11.913Z,7.82
2023-01-03T07:34:14.838Z,7.78
2023-01-03T07:39:19.049Z,7.76
2023-01-03T07:44:21.821Z,7.75
2023-01-03T07:49:26.091Z,7.74
2023-01-03T07:54:30.181Z,7.65
2023-01-03T07:59:32.981Z,7.47
2023-01-03T08:04:35.774Z,7.45
2023-01-03T08:09:57.718Z,7.55
2023-01-03T08:15:00.509Z,7.72
2023-01-03T08:20:03.279Z,7.86
2023-01-03T08:25:08.096Z,7.85
2023-01-03T08:30:12.000Z,7.92
2023-01-03T08:35:16.099Z,7.94
2023-01-03T08:40:20.509Z,7.84
2023-01-03T08:45:23.229Z,8.02
2023-01-03T08:50:26.482Z,8.11
2023-01-03T08:55:30.590Z,8.20
2023-01-03T09:00:33.341Z,8.24
2023-01-03T09:05:36.105Z,8.19
2023-01-03T09:10:47.635Z,8.27
2023-01-03T09:15:50.747Z,8.31
2023-01-03T09:20:53.504Z,8.40
2023-01-03T09:25:57.594Z,8.49
2023-01-03T09:31:00.345Z,8.46
2023-01-03T09:36:03.240Z,8.43
2023-01-03T09:41:09.959Z,8.50
2023-01-03T09:46:17.224Z,8.43
2023-01-03T09:51:39.775Z,8.49
2023-01-03T09:57:01.696Z,8.56
2023-01-03T10:02:37.011Z,8.58
2023-01-03T10:08:00.631Z,8.63
2023-01-03T10:13:17.813Z,8.62
2023-01-03T10:18:34.397Z,8.65
2023-01-03T10:23:37.208Z,8.69
2023-01-03T10:28:44.715Z,8.84
2023-01-03T10:33:48.391Z,8.76
2023-01-03T10:39:03.889Z,8.60
2023-01-03T10:44:08.022Z,8.69
2023-01-03T10:49:27.163Z,9.05
2023-01-03T10:54:48.345Z,9.40
2023-01-03T10:59:52.393Z,9.64
2023-01-03T11:05:12.271Z,9.85
2023-01-03T11:10:18.578Z,9.98
2023-01-03T11:15:39.080Z,9.53
2023-01-03T11:20:47.341Z,9.17
2023-01-03T11:25:56.083Z,8.96
2023-01-03T11:31:03.991Z,8.78
2023-01-03T11:36:24.039Z,8.77
2023-01-03T11:41:41.258Z,10.32
2023-01-03T11:46:55.577Z,11.21
2023-01-03T11:52:07.751Z,10.93
2023-01-03T11:57:15.931Z,10.62
2023-01-03T12:02:40.955Z,10.07
2023-01-03T12:07:52.615Z,10.00
2023-01-03T12:13:07.354Z,10.32
2023-01-03T12:18:18.303Z,10.54
2023-01-03T12:23:30.359Z,10.38
2023-01-03T12:28:37.646Z,10.64
2023-01-03T12:33:46.094Z,10.43
2023-01-03T12:38:53.453Z,10.35
2023-01-03T12:44:00.867Z,10.32
2023-01-03T12:49:08.726Z,9.84
2023-01-03T12:54:21.439Z,9.63
2023-01-03T12:59:36.844Z,9.86
2023-01-03T13:04:43.507Z,9.94
2023-01-03T13:09:49.673Z,10.01
2023-01-03T13:14:54.360Z,10.12
2023-01-03T13:20:00.325Z,10.32
2023-01-03T13:25:29.698Z,10.38
2023-01-03T13:30:34.181Z,10.38
2023-01-03T13:35:53.309Z,10.39
2023-01-03T13:46:24.874Z,10.12
2023-01-03T13:51:50.571Z,9.87
2023-01-03T13:57:03.952Z,9.70
2023-01-03T14:02:49.835Z,9.59
2023-01-03T14:08:13.883Z,9.55
2023-01-03T14:13:38.605Z,9.46
2023-01-03T14:18:42.604Z,9.33
2023-01-03T14:23:59.670Z,9.25
2023-01-03T14:29:03.818Z,9.02
2023-01-03T14:34:07.988Z,8.88
2023-01-03T14:39:21.792Z,8.82
2023-01-03T14:44:24.569Z,8.85
2023-01-03T14:49:45.334Z,8.86
2023-01-03T14:54:51.841Z,8.85
2023-01-03T14:59:56.109Z,8.91
2023-01-03T15:04:59.596Z,8.90
2023-01-03T15:10:06.755Z,8.75
2023-01-03T15:15:18.591Z,8.57
2023-01-03T15:20:25.190Z,8.59
2023-01-03T15:25:35.278Z,8.50
2023-01-03T15:30:47.385Z,8.37
2023-01-03T15:35:51.307Z,8.25
2023-01-03T15:40:55.671Z,8.18
2023-01-03T15:46:04.013Z,8.14
2023-01-03T15:51:07.359Z,8.03
2023-01-03T15:56:17.392Z,7.84
2023-01-03T16:01:21.164Z,7.79
2023-01-03T16:06:24.076Z,7.67
2023-01-03T16:11:34.244Z,7.58
2023-01-03T16:16:39.480Z,7.56
2023-01-03T16:21:51.564Z,7.52
2023-01-03T16:27:14.163Z,7.45
2023-01-03T16:32:19.756Z,7.41
2023-01-03T16:37:22.835Z,7.37
2023-01-03T16:42:28.405Z,7.52
2023-01-03T16:47:33.628Z,7.54
2023-01-03T16:52:39.397Z,7.43
2023-01-03T16:57:46.276Z,7.35
2023-01-03T17:02:54.425Z,7.30
2023-01-03T17:08:03.973Z,7.38
2023-01-03T17:13:12.889Z,7.51
2023-01-03T17:18:19.153Z,7.60
2023-01-03T17:23:22.405Z,7.63
2023-01-03T17:28:26.496Z,7.69
2023-01-03T17:33:33.970Z,7.72
2023-01-03T17:38:37.153Z,7.76
2023-01-03T17:43:41.177Z,7.75
2023-01-03T17:49:01.530Z,7.77
2023-01-03T17:54:05.336Z,7.62
2023-01-03T17:59:12.680Z,7.60
2023-01-03T18:04:15.534Z,7.68
2023-01-03T18:09:19.473Z,7.71
2023-01-03T18:14:23.727Z,7.62
2023-01-03T18:19:26.474Z,7.62
2023-01-03T18:24:31.083Z,7.64
2023-01-03T18:29:35.177Z,7.68
2023-01-03T18:34:37.936Z,7.70
2023-01-03T18:39:40.967Z,7.61
2023-01-03T18:44:45.875Z,7.61
2023-01-03T18:49:48.742Z,7.56
2023-01-03T18:54:52.117Z,7.58
2023-01-03T18:59:58.373Z,7.64
2023-01-03T19:05:01.154Z,7.63
2023-01-03T19:10:05.900Z,7.67
2023-01-03T19:15:17.959Z,7.59
2023-01-03T19:20:26.570Z,7.60
2023-01-03T19:25:31.292Z,7.56
2023-01-03T19:30:38.589Z,7.56
2023-01-03T19:35:41.387Z,7.52
2023-01-03T19:40:45.217Z,7.54
2023-01-03T19:45:50.057Z,7.44
2023-01-03T19:50:53.794Z,7.42
2023-01-03T19:55:56.587Z,7.35
2023-01-03T20:01:01.054Z,7.36
2023-01-03T20:06:03.758Z,7.32
2023-01-03T20:11:06.959Z,7.28
2023-01-03T20:16:11.844Z,7.25
2023-01-03T20:21:22.611Z,7.21
2023-01-03T20:26:27.711Z,7.18
2023-01-03T20:31:32.002Z,7.17
2023-01-03T20:36:40.096Z,7.11
2023-01-03T20:41:42.883Z,7.01
2023-01-03T20:46:47.143Z,6.90
2023-01-03T20:51:49.940Z,6.85
2023-01-03T20:56:52.666Z,6.82
2023-01-03T21:01:57.226Z,6.75
2023-01-03T21:07:00.352Z,6.73
2023-01-03T21:12:04.680Z,6.68
2023-01-03T21:17:11.596Z,6.63
2023-01-03T21:22:19.994Z,6.57
2023-01-03T21:27:22.728Z,6.56
2023-01-03T21:32:26.924Z,6.57
2023-01-03T21:37:29.800Z,6.53
2023-01-03T21:42:50.216Z,6.52
2023-01-03T21:47:54.297Z,6.44
2023-01-03T21:52:57.187Z,6.44
2023-01-03T21:58:00.386Z,6.43
2023-01-03T22:03:21.785Z,6.42
2023-01-03T22:08:24.583Z,6.42
2023-01-03T22:13:27.314Z,6.40
2023-01-03T22:18:31.585Z,6.41
2023-01-03T22:23:35.020Z,6.38
2023-01-03T22:28:38.856Z,6.35
2023-01-03T22:33:43.132Z,6.33
2023-01-03T22:38:45.952Z,6.32
2023-01-03T22:43:48.658Z,6.30
2023-01-03T22:48:53.187Z,6.27
2023-01-03T22:53:56.983Z,6.22
2023-01-03T22:58:59.756Z,6.21
2023-01-03T23:04:06.595Z,6.19
2023-01-03T23:09:09.571Z,6.17
2023-01-03T23:14:14.803Z,6.17
2023-01-03T23:19:20.524Z,6.18
2023-01-03T23:24:25.091Z,6.10
2023-01-03T23:29:27.973Z,6.09
2023-01-03T23:34:36.206Z,6.09
2023-01-03T23:39:39.747Z,6.06
2023-01-03T23:44:42.547Z,6.05
2023-01-03T23:49:46.764Z,6.04
2023-01-03T23:54:53.359Z,6.07
2023-01-03T23:59:58.976Z,6.09
